OIZC

Details ICAO OIZC (ZBR)
Name CHAH BAHAR
Region Iran
Timezone Asia/Tehran (UTC+4.5)
Plans Departing 12
Arriving 14
Stats Elevation 43 ft / 13 m (AMSL)
Location 25.443349° 60.382115°
Runways 2
Magnetic Variation 1.580° E
Sunrise 2017-03-25 01:58:32 UTC / 2017-03-25 06:28:32 Local
Sunset 2017-03-25 14:12:51 UTC / 2017-03-25 18:42:51 Local
Advertisement - Login to hide

Runways

ID Width Length Bearing (true) Bearing (mag) Surface Threshold Offset Overrun Length
09L 150 ft / 46 m 12,496 ft / 3,809 m 90.91° 89.33° Asphalt 0 ft / 0 m 1,181 ft / 360 m
09R 150 ft / 46 m 9,829 ft / 2,996 m 90.93° 89.35° Asphalt 0 ft / 0 m 1,181 ft / 360 m
27L 150 ft / 46 m 9,829 ft / 2,996 m 270.94° 269.36° Asphalt 0 ft / 0 m 1,181 ft / 360 m
27R 150 ft / 46 m 12,496 ft / 3,809 m 270.93° 269.35° Asphalt 0 ft / 0 m 1,181 ft / 360 m

Map

Weather

Temperature
Clouds and Precipitation
Forecast for 2017-03-26 00:00 UTC. Updated 7 minutes ago
Winds

METAR

Not found

TAF

TAF OIZC 251745Z 2518/2624 16005MPS 7000 FEW030 SCT100 BECMG 2521/2523 3000 BR SCT030 PROB40 2600/2603 0800 FG BKN010 BECMG 2605/2606 5000 HZ FEW030 SCT090 TEMPO 2606/2615 21007G12MPS 3000 SA FEW030CB SCT035 BKN090

Frequencies

Tower 121.70 MHz TWR
Approach 134.10 MHz APP
Tower 125.20 MHz TWR
Warning: Do not use this data for real-world aviation or navigation. No guarantee of current accuracy is given.